sensor_id;sensor_type;location;lat;lon;timestamp;P1;durP1;ratioP1;P2;durP2;ratioP2
75647;SDS011;66269;51.466;7.260;2023-02-02T00:01:48;5.50;;;1.70;;
75647;SDS011;66269;51.466;7.260;2023-02-02T00:04:16;6.20;;;1.80;;
75647;SDS011;66269;51.466;7.260;2023-02-02T00:06:43;5.05;;;1.83;;
75647;SDS011;66269;51.466;7.260;2023-02-02T00:09:10;5.68;;;1.80;;
75647;SDS011;66269;51.466;7.260;2023-02-02T00:11:37;6.50;;;1.75;;
75647;SDS011;66269;51.466;7.260;2023-02-02T00:14:03;6.30;;;1.88;;
75647;SDS011;66269;51.466;7.260;2023-02-02T00:18:58;6.25;;;2.03;;
75647;SDS011;66269;51.466;7.260;2023-02-02T00:21:25;5.00;;;1.70;;
75647;SDS011;66269;51.466;7.260;2023-02-02T00:23:50;5.05;;;1.88;;
75647;SDS011;66269;51.466;7.260;2023-02-02T00:26:16;4.95;;;1.60;;
75647;SDS011;66269;51.466;7.260;2023-02-02T00:28:42;5.45;;;2.25;;
75647;SDS011;66269;51.466;7.260;2023-02-02T00:31:08;6.30;;;2.00;;
75647;SDS011;66269;51.466;7.260;2023-02-02T00:33:34;6.43;;;1.90;;
75647;SDS011;66269;51.466;7.260;2023-02-02T00:35:59;6.10;;;2.10;;
75647;SDS011;66269;51.466;7.260;2023-02-02T00:38:25;4.88;;;1.75;;
75647;SDS011;66269;51.466;7.260;2023-02-02T00:40:50;5.47;;;1.75;;
75647;SDS011;66269;51.466;7.260;2023-02-02T00:43:16;4.78;;;1.67;;
75647;SDS011;66269;51.466;7.260;2023-02-02T00:45:41;5.22;;;1.77;;
75647;SDS011;66269;51.466;7.260;2023-02-02T00:48:07;5.05;;;1.55;;
75647;SDS011;66269;51.466;7.260;2023-02-02T00:50:35;5.60;;;1.77;;
75647;SDS011;66269;51.466;7.260;2023-02-02T00:53:01;5.63;;;2.10;;
75647;SDS011;66269;51.466;7.260;2023-02-02T00:55:26;5.25;;;1.75;;
75647;SDS011;66269;51.466;7.260;2023-02-02T00:57:52;5.07;;;1.80;;
75647;SDS011;66269;51.466;7.260;2023-02-02T01:00:19;5.32;;;1.98;;
75647;SDS011;66269;51.466;7.260;2023-02-02T01:02:47;5.68;;;2.00;;
75647;SDS011;66269;51.466;7.260;2023-02-02T01:05:14;6.20;;;1.90;;
75647;SDS011;66269;51.466;7.260;2023-02-02T01:07:40;6.03;;;1.85;;
75647;SDS011;66269;51.466;7.260;2023-02-02T01:10:06;5.05;;;1.85;;
75647;SDS011;66269;51.466;7.260;2023-02-02T01:12:35;5.28;;;1.63;;
75647;SDS011;66269;51.466;7.260;2023-02-02T01:15:00;5.60;;;1.90;;
75647;SDS011;66269;51.466;7.260;2023-02-02T01:17:26;5.53;;;1.77;;
75647;SDS011;66269;51.466;7.260;2023-02-02T01:19:52;5.28;;;2.15;;
75647;SDS011;66269;51.466;7.260;2023-02-02T01:22:18;5.72;;;2.17;;
75647;SDS011;66269;51.466;7.260;2023-02-02T01:24:43;5.25;;;1.90;;
75647;SDS011;66269;51.466;7.260;2023-02-02T01:27:09;5.15;;;1.63;;
75647;SDS011;66269;51.466;7.260;2023-02-02T01:29:34;5.68;;;1.70;;
75647;SDS011;66269;51.466;7.260;2023-02-02T01:32:00;5.82;;;1.70;;
75647;SDS011;66269;51.466;7.260;2023-02-02T01:34:25;5.95;;;1.80;;
75647;SDS011;66269;51.466;7.260;2023-02-02T01:36:51;4.68;;;1.58;;
75647;SDS011;66269;51.466;7.260;2023-02-02T01:39:16;4.45;;;1.52;;
75647;SDS011;66269;51.466;7.260;2023-02-02T01:41:43;6.00;;;1.85;;
75647;SDS011;66269;51.466;7.260;2023-02-02T01:47:11;6.00;;;1.88;;
75647;SDS011;66269;51.466;7.260;2023-02-02T01:49:38;5.93;;;1.92;;
75647;SDS011;66269;51.466;7.260;2023-02-02T01:52:05;4.95;;;1.83;;
75647;SDS011;66269;51.466;7.260;2023-02-02T01:54:33;5.00;;;1.73;;
75647;SDS011;66269;51.466;7.260;2023-02-02T01:57:03;4.20;;;1.42;;
75647;SDS011;66269;51.466;7.260;2023-02-02T01:59:40;4.97;;;1.70;;
75647;SDS011;66269;51.466;7.260;2023-02-02T02:02:08;4.47;;;1.70;;
75647;SDS011;66269;51.466;7.260;2023-02-02T02:04:34;4.85;;;1.80;;
75647;SDS011;66269;51.466;7.260;2023-02-02T02:07:00;4.63;;;1.58;;
75647;SDS011;66269;51.466;7.260;2023-02-02T02:09:29;6.60;;;2.00;;
75647;SDS011;66269;51.466;7.260;2023-02-02T02:11:57;5.22;;;1.73;;
75647;SDS011;66269;51.466;7.260;2023-02-02T02:14:23;5.13;;;1.90;;
75647;SDS011;66269;51.466;7.260;2023-02-02T02:19:53;5.25;;;1.70;;
75647;SDS011;66269;51.466;7.260;2023-02-02T02:29:08;5.18;;;1.63;;
75647;SDS011;66269;51.466;7.260;2023-02-02T02:35:01;4.97;;;1.70;;
75647;SDS011;66269;51.466;7.260;2023-02-02T02:37:32;4.97;;;1.65;;
75647;SDS011;66269;51.466;7.260;2023-02-02T02:42:38;5.93;;;1.67;;
75647;SDS011;66269;51.466;7.260;2023-02-02T02:45:08;5.00;;;1.70;;
75647;SDS011;66269;51.466;7.260;2023-02-02T02:47:35;4.85;;;1.73;;
75647;SDS011;66269;51.466;7.260;2023-02-02T02:50:02;4.47;;;1.52;;
75647;SDS011;66269;51.466;7.260;2023-02-02T02:52:28;5.13;;;1.88;;
75647;SDS011;66269;51.466;7.260;2023-02-02T02:54:55;5.72;;;1.75;;
75647;SDS011;66269;51.466;7.260;2023-02-02T02:57:36;4.60;;;1.50;;
75647;SDS011;66269;51.466;7.260;2023-02-02T03:02:48;5.78;;;1.92;;
75647;SDS011;66269;51.466;7.260;2023-02-02T03:05:25;5.55;;;1.50;;
75647;SDS011;66269;51.466;7.260;2023-02-02T03:10:26;5.45;;;2.08;;
75647;SDS011;66269;51.466;7.260;2023-02-02T03:12:54;4.70;;;1.70;;
75647;SDS011;66269;51.466;7.260;2023-02-02T03:15:21;4.55;;;1.58;;
75647;SDS011;66269;51.466;7.260;2023-02-02T03:17:47;5.53;;;1.77;;
75647;SDS011;66269;51.466;7.260;2023-02-02T03:20:14;5.38;;;1.50;;
75647;SDS011;66269;51.466;7.260;2023-02-02T03:22:40;5.13;;;1.65;;
75647;SDS011;66269;51.466;7.260;2023-02-02T03:25:06;3.95;;;1.40;;
75647;SDS011;66269;51.466;7.260;2023-02-02T03:27:35;5.28;;;1.95;;
75647;SDS011;66269;51.466;7.260;2023-02-02T03:30:04;4.93;;;1.60;;
75647;SDS011;66269;51.466;7.260;2023-02-02T03:32:35;5.13;;;1.65;;
75647;SDS011;66269;51.466;7.260;2023-02-02T03:35:01;5.22;;;1.83;;
75647;SDS011;66269;51.466;7.260;2023-02-02T03:37:27;4.63;;;1.58;;
75647;SDS011;66269;51.466;7.260;2023-02-02T03:39:53;5.38;;;1.63;;
75647;SDS011;66269;51.466;7.260;2023-02-02T03:42:18;4.60;;;1.63;;
75647;SDS011;66269;51.466;7.260;2023-02-02T03:44:44;5.75;;;1.80;;
75647;SDS011;66269;51.466;7.260;2023-02-02T03:47:09;5.20;;;1.73;;
75647;SDS011;66269;51.466;7.260;2023-02-02T03:49:35;5.70;;;1.77;;
75647;SDS011;66269;51.466;7.260;2023-02-02T03:52:00;5.35;;;1.80;;
75647;SDS011;66269;51.466;7.260;2023-02-02T03:54:28;5.95;;;1.90;;
75647;SDS011;66269;51.466;7.260;2023-02-02T03:56:53;4.57;;;1.50;;
75647;SDS011;66269;51.466;7.260;2023-02-02T03:59:19;4.50;;;1.70;;
75647;SDS011;66269;51.466;7.260;2023-02-02T04:01:44;4.72;;;1.60;;
75647;SDS011;66269;51.466;7.260;2023-02-02T04:04:10;5.25;;;1.88;;
75647;SDS011;66269;51.466;7.260;2023-02-02T04:06:35;4.65;;;1.60;;
75647;SDS011;66269;51.466;7.260;2023-02-02T04:09:01;4.97;;;1.67;;
75647;SDS011;66269;51.466;7.260;2023-02-02T04:11:27;4.80;;;1.70;;
75647;SDS011;66269;51.466;7.260;2023-02-02T04:13:52;4.65;;;1.60;;
75647;SDS011;66269;51.466;7.260;2023-02-02T04:16:18;5.72;;;2.00;;
75647;SDS011;66269;51.466;7.260;2023-02-02T04:18:43;4.78;;;1.60;;
75647;SDS011;66269;51.466;7.260;2023-02-02T04:21:09;6.40;;;1.60;;
75647;SDS011;66269;51.466;7.260;2023-02-02T04:23:35;5.70;;;1.90;;
75647;SDS011;66269;51.466;7.260;2023-02-02T04:26:01;5.57;;;1.90;;
75647;SDS011;66269;51.466;7.260;2023-02-02T04:28:27;4.90;;;1.60;;
75647;SDS011;66269;51.466;7.260;2023-02-02T04:30:53;5.38;;;1.75;;
75647;SDS011;66269;51.466;7.260;2023-02-02T04:33:20;5.60;;;1.92;;
75647;SDS011;66269;51.466;7.260;2023-02-02T04:35:47;6.00;;;1.88;;
75647;SDS011;66269;51.466;7.260;2023-02-02T04:38:13;6.03;;;2.00;;
75647;SDS011;66269;51.466;7.260;2023-02-02T04:40:39;5.55;;;1.60;;
75647;SDS011;66269;51.466;7.260;2023-02-02T04:43:05;6.32;;;1.85;;
75647;SDS011;66269;51.466;7.260;2023-02-02T04:45:31;6.55;;;1.80;;
75647;SDS011;66269;51.466;7.260;2023-02-02T04:47:57;5.05;;;1.80;;
75647;SDS011;66269;51.466;7.260;2023-02-02T04:50:23;5.57;;;1.63;;
75647;SDS011;66269;51.466;7.260;2023-02-02T04:52:48;4.78;;;1.70;;
75647;SDS011;66269;51.466;7.260;2023-02-02T04:55:14;4.43;;;1.58;;
75647;SDS011;66269;51.466;7.260;2023-02-02T04:57:39;4.03;;;1.52;;
75647;SDS011;66269;51.466;7.260;2023-02-02T05:00:05;6.68;;;1.90;;
75647;SDS011;66269;51.466;7.260;2023-02-02T05:02:34;4.95;;;1.67;;
75647;SDS011;66269;51.466;7.260;2023-02-02T05:05:00;5.10;;;1.60;;
75647;SDS011;66269;51.466;7.260;2023-02-02T05:07:26;6.28;;;2.05;;
75647;SDS011;66269;51.466;7.260;2023-02-02T05:09:51;5.53;;;1.70;;
75647;SDS011;66269;51.466;7.260;2023-02-02T05:12:17;5.32;;;1.90;;
75647;SDS011;66269;51.466;7.260;2023-02-02T05:14:42;5.25;;;1.73;;
75647;SDS011;66269;51.466;7.260;2023-02-02T05:17:08;4.82;;;1.80;;
75647;SDS011;66269;51.466;7.260;2023-02-02T05:19:33;5.72;;;1.73;;
75647;SDS011;66269;51.466;7.260;2023-02-02T05:21:59;4.80;;;1.60;;
75647;SDS011;66269;51.466;7.260;2023-02-02T05:24:24;5.53;;;1.80;;
75647;SDS011;66269;51.466;7.260;2023-02-02T05:26:51;5.68;;;1.80;;
75647;SDS011;66269;51.466;7.260;2023-02-02T05:29:18;5.78;;;1.77;;
75647;SDS011;66269;51.466;7.260;2023-02-02T05:31:44;5.57;;;1.92;;
75647;SDS011;66269;51.466;7.260;2023-02-02T05:34:09;5.70;;;1.83;;
75647;SDS011;66269;51.466;7.260;2023-02-02T05:36:35;6.80;;;2.10;;
75647;SDS011;66269;51.466;7.260;2023-02-02T05:39:00;4.55;;;1.90;;
75647;SDS011;66269;51.466;7.260;2023-02-02T05:41:26;5.68;;;1.77;;
75647;SDS011;66269;51.466;7.260;2023-02-02T05:43:52;6.82;;;1.90;;
75647;SDS011;66269;51.466;7.260;2023-02-02T05:46:17;5.22;;;1.83;;
75647;SDS011;66269;51.466;7.260;2023-02-02T05:48:43;6.15;;;1.80;;
75647;SDS011;66269;51.466;7.260;2023-02-02T05:51:10;6.00;;;1.77;;
75647;SDS011;66269;51.466;7.260;2023-02-02T05:53:42;5.15;;;2.00;;
75647;SDS011;66269;51.466;7.260;2023-02-02T05:56:09;5.40;;;1.80;;
75647;SDS011;66269;51.466;7.260;2023-02-02T05:58:34;5.32;;;1.77;;
75647;SDS011;66269;51.466;7.260;2023-02-02T06:01:00;5.07;;;1.70;;
75647;SDS011;66269;51.466;7.260;2023-02-02T06:03:26;5.57;;;1.77;;
75647;SDS011;66269;51.466;7.260;2023-02-02T06:05:51;5.05;;;1.98;;
75647;SDS011;66269;51.466;7.260;2023-02-02T06:08:17;5.10;;;1.63;;
75647;SDS011;66269;51.466;7.260;2023-02-02T06:10:42;4.72;;;1.90;;
75647;SDS011;66269;51.466;7.260;2023-02-02T06:13:08;4.75;;;1.75;;
75647;SDS011;66269;51.466;7.260;2023-02-02T06:15:34;7.45;;;2.03;;
75647;SDS011;66269;51.466;7.260;2023-02-02T06:18:00;4.68;;;1.70;;
75647;SDS011;66269;51.466;7.260;2023-02-02T06:20:26;4.78;;;1.75;;
75647;SDS011;66269;51.466;7.260;2023-02-02T06:22:53;5.15;;;1.75;;
75647;SDS011;66269;51.466;7.260;2023-02-02T06:25:18;5.43;;;1.95;;
75647;SDS011;66269;51.466;7.260;2023-02-02T06:27:44;6.80;;;2.17;;
75647;SDS011;66269;51.466;7.260;2023-02-02T06:30:10;4.55;;;1.75;;
75647;SDS011;66269;51.466;7.260;2023-02-02T06:32:37;4.80;;;1.85;;
75647;SDS011;66269;51.466;7.260;2023-02-02T06:35:03;5.05;;;1.80;;
75647;SDS011;66269;51.466;7.260;2023-02-02T06:37:29;5.60;;;1.75;;
75647;SDS011;66269;51.466;7.260;2023-02-02T06:39:55;4.60;;;1.80;;
75647;SDS011;66269;51.466;7.260;2023-02-02T06:42:20;4.75;;;1.80;;
75647;SDS011;66269;51.466;7.260;2023-02-02T06:44:46;4.60;;;1.77;;
75647;SDS011;66269;51.466;7.260;2023-02-02T06:47:11;6.50;;;2.08;;
75647;SDS011;66269;51.466;7.260;2023-02-02T06:49:37;5.80;;;2.20;;
75647;SDS011;66269;51.466;7.260;2023-02-02T06:52:02;4.78;;;1.80;;
75647;SDS011;66269;51.466;7.260;2023-02-02T06:54:28;4.72;;;1.55;;
75647;SDS011;66269;51.466;7.260;2023-02-02T06:56:54;5.07;;;1.58;;
75647;SDS011;66269;51.466;7.260;2023-02-02T06:59:20;5.32;;;1.70;;
75647;SDS011;66269;51.466;7.260;2023-02-02T07:01:47;4.85;;;1.70;;
75647;SDS011;66269;51.466;7.260;2023-02-02T07:04:13;10.60;;;2.00;;
75647;SDS011;66269;51.466;7.260;2023-02-02T07:06:41;7.55;;;1.90;;
75647;SDS011;66269;51.466;7.260;2023-02-02T07:09:07;3.72;;;1.67;;
75647;SDS011;66269;51.466;7.260;2023-02-02T07:11:32;4.95;;;1.80;;
75647;SDS011;66269;51.466;7.260;2023-02-02T07:13:59;4.63;;;1.60;;
75647;SDS011;66269;51.466;7.260;2023-02-02T07:16:25;4.93;;;1.70;;
75647;SDS011;66269;51.466;7.260;2023-02-02T07:18:51;7.47;;;1.83;;
75647;SDS011;66269;51.466;7.260;2023-02-02T07:21:18;4.70;;;1.73;;
75647;SDS011;66269;51.466;7.260;2023-02-02T07:23:45;5.00;;;1.77;;
75647;SDS011;66269;51.466;7.260;2023-02-02T07:26:11;5.93;;;1.70;;
75647;SDS011;66269;51.466;7.260;2023-02-02T07:28:38;6.93;;;2.17;;
75647;SDS011;66269;51.466;7.260;2023-02-02T07:31:14;6.38;;;1.70;;
75647;SDS011;66269;51.466;7.260;2023-02-02T07:33:42;5.80;;;1.95;;
75647;SDS011;66269;51.466;7.260;2023-02-02T07:36:09;5.32;;;1.95;;
75647;SDS011;66269;51.466;7.260;2023-02-02T07:38:35;3.78;;;1.42;;
75647;SDS011;66269;51.466;7.260;2023-02-02T07:41:01;6.60;;;1.90;;
75647;SDS011;66269;51.466;7.260;2023-02-02T07:43:27;4.03;;;1.40;;
75647;SDS011;66269;51.466;7.260;2023-02-02T07:45:53;4.63;;;1.42;;
75647;SDS011;66269;51.466;7.260;2023-02-02T07:48:19;4.50;;;1.60;;
75647;SDS011;66269;51.466;7.260;2023-02-02T07:50:45;4.80;;;1.70;;
75647;SDS011;66269;51.466;7.260;2023-02-02T07:53:11;4.25;;;1.73;;
75647;SDS011;66269;51.466;7.260;2023-02-02T07:55:36;5.55;;;1.50;;
75647;SDS011;66269;51.466;7.260;2023-02-02T07:58:02;4.32;;;1.52;;
75647;SDS011;66269;51.466;7.260;2023-02-02T08:00:27;4.30;;;1.70;;
75647;SDS011;66269;51.466;7.260;2023-02-02T08:02:53;4.53;;;1.63;;
75647;SDS011;66269;51.466;7.260;2023-02-02T08:05:19;3.83;;;1.50;;
75647;SDS011;66269;51.466;7.260;2023-02-02T08:07:46;3.78;;;1.50;;
75647;SDS011;66269;51.466;7.260;2023-02-02T08:10:12;4.68;;;1.80;;
75647;SDS011;66269;51.466;7.260;2023-02-02T08:12:38;4.45;;;1.60;;
75647;SDS011;66269;51.466;7.260;2023-02-02T08:15:03;3.85;;;1.50;;
75647;SDS011;66269;51.466;7.260;2023-02-02T08:17:29;4.30;;;1.60;;
75647;SDS011;66269;51.466;7.260;2023-02-02T08:19:54;4.50;;;1.42;;
75647;SDS011;66269;51.466;7.260;2023-02-02T08:22:20;6.05;;;1.50;;
75647;SDS011;66269;51.466;7.260;2023-02-02T08:24:45;4.20;;;1.58;;
75647;SDS011;66269;51.466;7.260;2023-02-02T08:27:12;4.13;;;1.40;;
75647;SDS011;66269;51.466;7.260;2023-02-02T08:29:39;3.88;;;1.70;;
75647;SDS011;66269;51.466;7.260;2023-02-02T08:32:05;4.07;;;1.50;;
75647;SDS011;66269;51.466;7.260;2023-02-02T08:34:30;3.53;;;1.50;;
75647;SDS011;66269;51.466;7.260;2023-02-02T08:36:58;4.63;;;1.83;;
75647;SDS011;66269;51.466;7.260;2023-02-02T08:39:24;5.00;;;1.85;;
75647;SDS011;66269;51.466;7.260;2023-02-02T08:41:50;4.25;;;1.60;;
75647;SDS011;66269;51.466;7.260;2023-02-02T08:44:18;6.43;;;1.70;;
75647;SDS011;66269;51.466;7.260;2023-02-02T08:46:43;4.00;;;1.40;;
75647;SDS011;66269;51.466;7.260;2023-02-02T08:49:09;4.30;;;1.60;;
75647;SDS011;66269;51.466;7.260;2023-02-02T08:51:36;3.95;;;1.60;;
75647;SDS011;66269;51.466;7.260;2023-02-02T08:54:01;4.55;;;1.60;;
75647;SDS011;66269;51.466;7.260;2023-02-02T08:56:27;4.25;;;1.60;;
75647;SDS011;66269;51.466;7.260;2023-02-02T08:58:53;3.40;;;1.45;;
75647;SDS011;66269;51.466;7.260;2023-02-02T09:01:26;3.17;;;1.40;;
75647;SDS011;66269;51.466;7.260;2023-02-02T09:03:53;5.05;;;1.80;;
75647;SDS011;66269;51.466;7.260;2023-02-02T09:06:40;4.22;;;1.60;;
75647;SDS011;66269;51.466;7.260;2023-02-02T09:09:06;3.55;;;1.40;;
75647;SDS011;66269;51.466;7.260;2023-02-02T09:11:34;5.35;;;1.58;;
75647;SDS011;66269;51.466;7.260;2023-02-02T09:14:00;3.22;;;1.50;;
75647;SDS011;66269;51.466;7.260;2023-02-02T09:16:27;4.07;;;1.45;;
75647;SDS011;66269;51.466;7.260;2023-02-02T09:18:53;3.75;;;1.58;;
75647;SDS011;66269;51.466;7.260;2023-02-02T09:21:20;4.38;;;1.52;;
75647;SDS011;66269;51.466;7.260;2023-02-02T09:23:46;3.75;;;1.60;;
75647;SDS011;66269;51.466;7.260;2023-02-02T09:26:17;3.65;;;1.40;;
75647;SDS011;66269;51.466;7.260;2023-02-02T09:28:44;4.35;;;1.65;;
75647;SDS011;66269;51.466;7.260;2023-02-02T09:31:11;3.38;;;1.45;;
75647;SDS011;66269;51.466;7.260;2023-02-02T09:33:37;4.30;;;1.67;;
75647;SDS011;66269;51.466;7.260;2023-02-02T09:36:04;3.72;;;1.60;;
75647;SDS011;66269;51.466;7.260;2023-02-02T09:38:30;3.60;;;1.45;;
75647;SDS011;66269;51.466;7.260;2023-02-02T09:40:56;5.32;;;1.90;;
75647;SDS011;66269;51.466;7.260;2023-02-02T09:46:48;3.53;;;1.40;;
75647;SDS011;66269;51.466;7.260;2023-02-02T09:52:04;3.63;;;1.60;;
75647;SDS011;66269;51.466;7.260;2023-02-02T09:54:41;3.45;;;1.40;;
75647;SDS011;66269;51.466;7.260;2023-02-02T09:57:23;3.88;;;1.52;;
75647;SDS011;66269;51.466;7.260;2023-02-02T09:59:52;3.72;;;1.60;;
75647;SDS011;66269;51.466;7.260;2023-02-02T10:02:54;3.63;;;1.50;;
75647;SDS011;66269;51.466;7.260;2023-02-02T10:05:24;4.45;;;1.73;;
75647;SDS011;66269;51.466;7.260;2023-02-02T10:07:55;4.47;;;1.50;;
75647;SDS011;66269;51.466;7.260;2023-02-02T10:10:28;3.83;;;1.50;;
75647;SDS011;66269;51.466;7.260;2023-02-02T10:15:38;5.18;;;1.60;;
75647;SDS011;66269;51.466;7.260;2023-02-02T10:18:18;3.75;;;1.70;;
75647;SDS011;66269;51.466;7.260;2023-02-02T10:21:08;4.60;;;1.60;;
75647;SDS011;66269;51.466;7.260;2023-02-02T10:23:45;5.00;;;2.15;;
75647;SDS011;66269;51.466;7.260;2023-02-02T10:31:48;5.07;;;1.65;;
75647;SDS011;66269;51.466;7.260;2023-02-02T10:34:20;5.03;;;1.48;;
75647;SDS011;66269;51.466;7.260;2023-02-02T10:36:55;3.88;;;1.40;;
75647;SDS011;66269;51.466;7.260;2023-02-02T10:39:32;3.53;;;1.60;;
75647;SDS011;66269;51.466;7.260;2023-02-02T10:45:17;3.58;;;1.55;;
75647;SDS011;66269;51.466;7.260;2023-02-02T10:47:44;4.75;;;1.77;;
75647;SDS011;66269;51.466;7.260;2023-02-02T10:52:39;4.47;;;1.65;;
75647;SDS011;66269;51.466;7.260;2023-02-02T10:55:20;4.78;;;2.08;;
75647;SDS011;66269;51.466;7.260;2023-02-02T10:58:13;4.47;;;1.85;;
75647;SDS011;66269;51.466;7.260;2023-02-02T11:00:51;4.35;;;1.70;;
75647;SDS011;66269;51.466;7.260;2023-02-02T11:03:23;5.30;;;1.70;;
75647;SDS011;66269;51.466;7.260;2023-02-02T11:05:56;5.57;;;1.77;;
75647;SDS011;66269;51.466;7.260;2023-02-02T11:08:43;4.85;;;1.70;;
75647;SDS011;66269;51.466;7.260;2023-02-02T11:11:26;4.53;;;1.90;;
75647;SDS011;66269;51.466;7.260;2023-02-02T11:16:28;5.53;;;1.70;;
75647;SDS011;66269;51.466;7.260;2023-02-02T11:18:55;6.32;;;1.90;;
75647;SDS011;66269;51.466;7.260;2023-02-02T11:24:15;4.93;;;1.80;;
75647;SDS011;66269;51.466;7.260;2023-02-02T11:26:52;4.25;;;1.90;;
75647;SDS011;66269;51.466;7.260;2023-02-02T11:31:57;4.82;;;1.92;;
75647;SDS011;66269;51.466;7.260;2023-02-02T11:34:40;3.65;;;1.65;;
75647;SDS011;66269;51.466;7.260;2023-02-02T11:37:13;4.40;;;1.90;;
75647;SDS011;66269;51.466;7.260;2023-02-02T11:39:43;3.38;;;1.60;;
75647;SDS011;66269;51.466;7.260;2023-02-02T11:42:16;4.75;;;2.08;;
75647;SDS011;66269;51.466;7.260;2023-02-02T11:44:46;6.18;;;1.75;;
75647;SDS011;66269;51.466;7.260;2023-02-02T11:47:18;4.50;;;1.90;;
75647;SDS011;66269;51.466;7.260;2023-02-02T11:49:44;8.02;;;1.90;;
75647;SDS011;66269;51.466;7.260;2023-02-02T11:52:15;4.30;;;1.50;;
75647;SDS011;66269;51.466;7.260;2023-02-02T11:54:45;4.53;;;1.60;;
75647;SDS011;66269;51.466;7.260;2023-02-02T11:57:15;4.22;;;1.75;;
75647;SDS011;66269;51.466;7.260;2023-02-02T11:59:48;4.30;;;1.90;;
75647;SDS011;66269;51.466;7.260;2023-02-02T12:04:44;4.72;;;1.80;;
75647;SDS011;66269;51.466;7.260;2023-02-02T12:07:17;5.25;;;1.90;;
75647;SDS011;66269;51.466;7.260;2023-02-02T12:09:52;4.60;;;2.00;;
75647;SDS011;66269;51.466;7.260;2023-02-02T12:15:24;4.47;;;1.63;;
75647;SDS011;66269;51.466;7.260;2023-02-02T12:21:10;4.78;;;2.00;;
75647;SDS011;66269;51.466;7.260;2023-02-02T12:24:12;6.50;;;2.25;;
75647;SDS011;66269;51.466;7.260;2023-02-02T12:27:11;4.93;;;2.00;;
75647;SDS011;66269;51.466;7.260;2023-02-02T12:32:27;5.55;;;1.98;;
75647;SDS011;66269;51.466;7.260;2023-02-02T12:35:23;4.60;;;1.90;;
75647;SDS011;66269;51.466;7.260;2023-02-02T12:38:08;4.72;;;1.80;;
75647;SDS011;66269;51.466;7.260;2023-02-02T12:43:22;4.10;;;1.73;;
75647;SDS011;66269;51.466;7.260;2023-02-02T12:46:24;4.20;;;1.88;;
75647;SDS011;66269;51.466;7.260;2023-02-02T12:51:47;5.13;;;2.03;;
75647;SDS011;66269;51.466;7.260;2023-02-02T12:54:23;5.38;;;2.30;;
75647;SDS011;66269;51.466;7.260;2023-02-02T12:57:02;5.50;;;2.40;;
75647;SDS011;66269;51.466;7.260;2023-02-02T13:02:16;4.47;;;2.10;;
75647;SDS011;66269;51.466;7.260;2023-02-02T13:07:41;5.88;;;2.33;;
75647;SDS011;66269;51.466;7.260;2023-02-02T13:10:22;4.90;;;2.10;;
75647;SDS011;66269;51.466;7.260;2023-02-02T13:13:00;7.10;;;2.60;;
75647;SDS011;66269;51.466;7.260;2023-02-02T13:15:36;5.10;;;2.25;;
75647;SDS011;66269;51.466;7.260;2023-02-02T13:18:06;6.35;;;2.20;;
75647;SDS011;66269;51.466;7.260;2023-02-02T13:20:42;5.80;;;2.22;;
75647;SDS011;66269;51.466;7.260;2023-02-02T13:25:51;7.22;;;3.60;;
75647;SDS011;66269;51.466;7.260;2023-02-02T13:31:03;11.43;;;7.30;;
75647;SDS011;66269;51.466;7.260;2023-02-02T13:33:34;10.57;;;5.85;;
75647;SDS011;66269;51.466;7.260;2023-02-02T13:36:07;9.13;;;4.95;;
75647;SDS011;66269;51.466;7.260;2023-02-02T13:38:39;7.85;;;5.03;;
75647;SDS011;66269;51.466;7.260;2023-02-02T13:41:07;9.68;;;5.50;;
75647;SDS011;66269;51.466;7.260;2023-02-02T13:49:03;7.85;;;4.30;;
75647;SDS011;66269;51.466;7.260;2023-02-02T14:02:48;7.95;;;3.88;;
75647;SDS011;66269;51.466;7.260;2023-02-02T14:05:21;8.07;;;3.60;;
75647;SDS011;66269;51.466;7.260;2023-02-02T14:07:55;9.70;;;3.63;;
75647;SDS011;66269;51.466;7.260;2023-02-02T14:10:34;7.07;;;3.25;;
75647;SDS011;66269;51.466;7.260;2023-02-02T14:15:56;9.02;;;3.35;;
75647;SDS011;66269;51.466;7.260;2023-02-02T14:21:56;5.78;;;2.95;;
75647;SDS011;66269;51.466;7.260;2023-02-02T14:24:49;6.60;;;3.15;;
75647;SDS011;66269;51.466;7.260;2023-02-02T14:26:58;7.72;;;3.10;;
75647;SDS011;66269;51.466;7.260;2023-02-02T14:34:47;6.53;;;2.75;;
75647;SDS011;66269;51.466;7.260;2023-02-02T14:48:12;6.78;;;2.83;;
75647;SDS011;66269;51.466;7.260;2023-02-02T14:50:46;5.65;;;2.95;;
75647;SDS011;66269;51.466;7.260;2023-02-02T14:53:28;5.88;;;2.72;;
75647;SDS011;66269;51.466;7.260;2023-02-02T14:56:00;5.63;;;2.40;;
75647;SDS011;66269;51.466;7.260;2023-02-02T14:58:33;5.20;;;2.60;;
75647;SDS011;66269;51.466;7.260;2023-02-02T15:01:24;5.47;;;2.30;;
75647;SDS011;66269;51.466;7.260;2023-02-02T15:03:54;6.65;;;2.47;;
75647;SDS011;66269;51.466;7.260;2023-02-02T15:14:31;5.20;;;2.20;;
75647;SDS011;66269;51.466;7.260;2023-02-02T15:17:33;4.32;;;2.20;;
75647;SDS011;66269;51.466;7.260;2023-02-02T15:20:11;4.90;;;2.25;;
75647;SDS011;66269;51.466;7.260;2023-02-02T15:25:18;6.55;;;2.33;;
75647;SDS011;66269;51.466;7.260;2023-02-02T15:27:45;6.68;;;2.35;;
75647;SDS011;66269;51.466;7.260;2023-02-02T15:30:17;5.30;;;2.17;;
75647;SDS011;66269;51.466;7.260;2023-02-02T15:32:43;5.57;;;1.98;;
75647;SDS011;66269;51.466;7.260;2023-02-02T15:35:15;6.25;;;2.33;;
75647;SDS011;66269;51.466;7.260;2023-02-02T15:37:49;5.80;;;2.63;;
75647;SDS011;66269;51.466;7.260;2023-02-02T15:40:20;6.70;;;2.80;;
75647;SDS011;66269;51.466;7.260;2023-02-02T15:42:49;4.15;;;2.03;;
75647;SDS011;66269;51.466;7.260;2023-02-02T15:45:33;5.47;;;2.25;;
75647;SDS011;66269;51.466;7.260;2023-02-02T15:50:44;5.18;;;2.40;;
75647;SDS011;66269;51.466;7.260;2023-02-02T15:53:15;5.00;;;2.30;;
75647;SDS011;66269;51.466;7.260;2023-02-02T15:55:43;5.75;;;2.47;;
75647;SDS011;66269;51.466;7.260;2023-02-02T16:01:00;5.43;;;2.47;;
75647;SDS011;66269;51.466;7.260;2023-02-02T16:04:06;5.78;;;2.33;;
75647;SDS011;66269;51.466;7.260;2023-02-02T16:06:37;5.70;;;2.10;;
75647;SDS011;66269;51.466;7.260;2023-02-02T16:09:03;4.57;;;2.38;;
75647;SDS011;66269;51.466;7.260;2023-02-02T16:11:30;5.25;;;2.28;;
75647;SDS011;66269;51.466;7.260;2023-02-02T16:14:04;4.78;;;2.17;;
75647;SDS011;66269;51.466;7.260;2023-02-02T16:16:37;5.95;;;2.45;;
75647;SDS011;66269;51.466;7.260;2023-02-02T16:21:32;8.55;;;2.17;;
75647;SDS011;66269;51.466;7.260;2023-02-02T16:24:02;4.47;;;2.20;;
75647;SDS011;66269;51.466;7.260;2023-02-02T16:26:29;5.22;;;2.28;;
75647;SDS011;66269;51.466;7.260;2023-02-02T16:28:56;5.22;;;2.05;;
75647;SDS011;66269;51.466;7.260;2023-02-02T16:31:25;4.30;;;2.10;;
75647;SDS011;66269;51.466;7.260;2023-02-02T16:33:52;4.97;;;2.28;;
75647;SDS011;66269;51.466;7.260;2023-02-02T16:36:27;4.75;;;2.28;;
75647;SDS011;66269;51.466;7.260;2023-02-02T16:38:54;4.70;;;2.40;;
75647;SDS011;66269;51.466;7.260;2023-02-02T16:41:34;5.28;;;2.20;;
75647;SDS011;66269;51.466;7.260;2023-02-02T16:46:59;4.93;;;2.17;;
75647;SDS011;66269;51.466;7.260;2023-02-02T16:49:25;4.60;;;2.15;;
75647;SDS011;66269;51.466;7.260;2023-02-02T16:54:39;4.60;;;2.22;;
75647;SDS011;66269;51.466;7.260;2023-02-02T16:57:13;4.53;;;2.10;;
75647;SDS011;66269;51.466;7.260;2023-02-02T16:59:44;4.30;;;2.00;;
75647;SDS011;66269;51.466;7.260;2023-02-02T17:04:51;4.20;;;2.10;;
75647;SDS011;66269;51.466;7.260;2023-02-02T17:07:21;4.35;;;2.33;;
75647;SDS011;66269;51.466;7.260;2023-02-02T17:09:47;4.80;;;2.58;;
75647;SDS011;66269;51.466;7.260;2023-02-02T17:14:48;4.70;;;2.20;;
75647;SDS011;66269;51.466;7.260;2023-02-02T17:17:18;4.30;;;2.00;;
75647;SDS011;66269;51.466;7.260;2023-02-02T17:19:44;5.18;;;1.98;;
75647;SDS011;66269;51.466;7.260;2023-02-02T17:22:11;4.45;;;2.00;;
75647;SDS011;66269;51.466;7.260;2023-02-02T17:24:41;4.50;;;1.90;;
75647;SDS011;66269;51.466;7.260;2023-02-02T17:27:11;4.32;;;2.08;;
75647;SDS011;66269;51.466;7.260;2023-02-02T17:29:41;4.30;;;2.03;;
75647;SDS011;66269;51.466;7.260;2023-02-02T17:32:08;4.53;;;2.10;;